Time;durP1;ratioP1;P1;durP2;ratioP2;P2;SDS_P1;SDS_P2;PMS_P1;PMS_P2;Temp;Humidity;BMP_temperature;BMP_pressure;BME280_temperature;BME280_humidity;BME280_pressure;Samples;Min_cycle;Max_cycle;Signal;HPM_P1;HPM_P2
2021/01/27 00:01:14;;;;;;;0.40;0.40;;;;;;;0.28;88.77;99327.88;4931954;29;20298;-79
2021/01/27 00:03:44;;;;;;;0.40;0.40;;;;;;;0.27;89.00;99318.31;4946804;28;20250;-79
2021/01/27 00:06:15;;;;;;;0.40;0.40;;;;;;;0.18;89.65;99322.75;4946892;28;20220;-79
2021/01/27 00:08:41;;;;;;;0.40;0.40;;;;;;;0.19;89.05;99310.38;4948790;28;20247;-79
2021/01/27 00:11:10;;;;;;;0.40;0.40;;;;;;;0.12;89.60;99309.38;4947745;28;20327;-78
2021/01/27 00:13:36;;;;;;;0.40;0.40;;;;;;;0.15;89.82;99311.69;4948525;29;20216;-79
2021/01/27 00:16:05;;;;;;;0.50;0.50;;;;;;;0.19;89.41;99310.38;4932673;28;20227;-79
2021/01/27 00:18:39;;;;;;;0.40;0.40;;;;;;;0.27;89.83;99318.31;4949787;28;20231;-79
2021/01/27 00:21:07;;;;;;;0.40;0.40;;;;;;;0.04;89.16;99294.38;4950017;29;20216;-79
2021/01/27 00:23:39;;;;;;;0.40;0.40;;;;;;;0.29;89.39;99318.97;4949527;29;20526;-79
2021/01/27 00:26:09;;;;;;;0.40;0.40;;;;;;;0.25;88.91;99307.09;4946870;29;20499;-79
2021/01/27 00:28:42;;;;;;;0.40;0.40;;;;;;;0.26;88.57;99316.66;4947722;29;20199;-79
2021/01/27 00:31:12;;;;;;;0.40;0.40;;;;;;;0.27;87.53;99321.78;4944945;28;20243;-79
2021/01/27 00:33:40;;;;;;;0.40;0.40;;;;;;;0.22;87.13;99310.91;4945144;28;20235;-79
2021/01/27 00:36:06;;;;;;;0.40;0.40;;;;;;;0.24;86.20;99326.53;4940515;23;20596;-79
2021/01/27 00:38:34;;;;;;;0.40;0.40;;;;;;;0.01;86.71;99321.03;4931471;29;20264;-79
2021/01/27 00:41:00;;;;;;;0.43;0.43;;;;;;;0.02;86.92;99312.16;4952921;23;20255;-79
2021/01/27 00:43:33;;;;;;;0.40;0.40;;;;;;;-0.07;87.80;99313.94;4947235;28;20266;-79
2021/01/27 00:46:00;;;;;;;0.40;0.40;;;;;;;-0.07;87.82;99307.84;4947447;29;20244;-79
2021/01/27 00:48:26;;;;;;;0.50;0.50;;;;;;;-0.15;87.19;99324.44;4944711;29;20323;-79
2021/01/27 00:50:54;;;;;;;0.50;0.50;;;;;;;-0.23;86.88;99299.88;4947270;29;20191;-79
2021/01/27 00:53:24;;;;;;;0.40;0.40;;;;;;;-0.09;86.38;99331.69;4948805;28;20250;-79
2021/01/27 00:55:52;;;;;;;0.40;0.40;;;;;;;-0.15;85.92;99311.28;4941238;29;20551;-79
2021/01/27 00:58:21;;;;;;;0.40;0.40;;;;;;;-0.13;86.51;99319.00;4929331;28;20267;-79
2021/01/27 01:00:52;;;;;;;0.50;0.50;;;;;;;-0.03;85.71;99331.06;4931582;23;20244;-79
2021/01/27 01:03:22;;;;;;;0.40;0.40;;;;;;;-0.03;85.33;99311.81;4925772;29;20257;-79
2021/01/27 01:05:50;;;;;;;0.40;0.40;;;;;;;-0.01;85.11;99309.84;4910452;29;20247;-80
2021/01/27 01:08:18;;;;;;;0.50;0.50;;;;;;;-0.01;84.53;99318.56;4923744;29;20589;-82
2021/01/27 01:10:50;;;;;;;0.40;0.40;;;;;;;0.15;84.57;99322.22;4922366;29;20644;-79
2021/01/27 01:13:20;;;;;;;0.40;0.40;;;;;;;0.08;84.19;99308.06;4909830;29;20656;-79
2021/01/27 01:15:47;;;;;;;0.40;0.40;;;;;;;0.15;84.30;99316.94;4927434;29;20243;-79
2021/01/27 01:18:13;;;;;;;0.40;0.40;;;;;;;0.13;84.60;99311.88;4913816;29;20196;-79
2021/01/27 01:20:43;;;;;;;0.40;0.40;;;;;;;0.24;84.20;99322.09;4965585;23;20223;-79
2021/01/27 01:23:10;;;;;;;0.40;0.40;;;;;;;0.26;84.89;99327.19;4946630;29;20267;-79
2021/01/27 01:25:36;;;;;;;0.50;0.50;;;;;;;0.12;84.40;99298.84;4929243;29;20227;-79
2021/01/27 01:28:05;;;;;;;0.40;0.40;;;;;;;0.22;85.30;99318.81;4946341;29;20246;-79
2021/01/27 01:30:38;;;;;;;0.40;0.40;;;;;;;0.26;85.51;99317.50;4947882;28;20219;-79
2021/01/27 01:33:12;;;;;;;0.50;0.50;;;;;;;0.21;85.94;99316.31;4929795;29;20287;-79
2021/01/27 01:35:49;;;;;;;0.40;0.40;;;;;;;0.11;85.77;99303.28;4945384;29;20706;-79
2021/01/27 01:38:16;;;;;;;0.50;0.50;;;;;;;0.12;85.96;99312.00;4936963;23;20237;-79
2021/01/27 01:40:54;;;;;;;0.40;0.40;;;;;;;0.19;86.13;99323.53;4904140;29;20236;-79
2021/01/27 01:43:25;;;;;;;0.40;0.40;;;;;;;0.13;86.42;99316.31;4928747;29;20220;-79
2021/01/27 01:46:24;;;;;;;0.40;0.40;;;;;;;0.14;86.77;99315.31;4915036;29;20480;-79
2021/01/27 01:49:00;;;;;;;0.40;0.40;;;;;;;0.19;86.43;99320.91;4925416;29;20224;-79
2021/01/27 01:51:37;;;;;;;0.40;0.40;;;;;;;0.08;86.90;99298.34;4927738;29;20249;-79
2021/01/27 01:54:23;;;;;;;0.40;0.40;;;;;;;0.17;86.77;99315.00;4930178;28;20244;-79
2021/01/27 01:56:54;;;;;;;0.40;0.40;;;;;;;0.10;86.81;99306.91;4892405;29;20261;-79
2021/01/27 01:59:21;;;;;;;0.40;0.40;;;;;;;0.15;86.89;99311.69;4907614;29;20240;-79
2021/01/27 02:01:51;;;;;;;0.40;0.40;;;;;;;0.20;86.45;99314.66;4925354;29;20223;-79
2021/01/27 02:04:19;;;;;;;0.40;0.40;;;;;;;0.15;86.19;99311.69;4927422;29;20236;-79
2021/01/27 02:06:49;;;;;;;0.40;0.40;;;;;;;0.26;86.29;99311.38;4912487;29;20239;-79
2021/01/27 02:09:17;;;;;;;0.50;0.50;;;;;;;0.16;86.42;99301.00;4930868;29;20244;-79
2021/01/27 02:12:09;;;;;;;0.40;0.40;;;;;;;0.22;86.41;99315.34;4928612;29;20235;-79
2021/01/27 02:15:15;;;;;;;0.40;0.40;;;;;;;0.26;86.47;99312.22;4919316;29;20567;-79
2021/01/27 02:18:49;;;;;;;0.40;0.40;;;;;;;0.30;86.09;99323.25;4985100;23;20267;-79
2021/01/27 02:22:31;;;;;;;0.40;0.40;;;;;;;0.27;85.68;99313.06;4824551;29;20249;-79
2021/01/27 02:26:00;;;;;;;0.40;0.40;;;;;;;0.25;85.41;99315.00;4826448;29;20224;-80
2021/01/27 02:29:23;;;;;;;0.40;0.40;;;;;;;0.22;85.62;99324.06;4909573;23;20304;-79
2021/01/27 02:32:54;;;;;;;0.40;0.40;;;;;;;0.27;85.07;99303.34;4922364;29;20228;-79
2021/01/27 02:36:03;;;;;;;0.40;0.40;;;;;;;0.22;84.34;99300.34;4922267;29;20280;-78
2021/01/27 02:39:25;;;;;;;0.40;0.40;;;;;;;0.29;84.28;99300.53;4922800;29;20217;-78
2021/01/27 02:42:55;;;;;;;0.40;0.40;;;;;;;0.31;84.21;99302.03;4967640;23;20269;-79
2021/01/27 02:46:07;;;;;;;0.40;0.40;;;;;;;0.36;82.38;99296.25;4981901;23;20199;-78
2021/01/27 02:49:57;;;;;;;0.40;0.40;;;;;;;0.45;81.18;99297.91;4959049;29;20668;-79
2021/01/27 02:53:08;;;;;;;0.40;0.40;;;;;;;0.52;80.16;99293.63;4955774;23;20274;-79
2021/01/27 02:56:34;;;;;;;0.40;0.40;;;;;;;0.51;79.68;99297.28;5046646;23;20255;-79
2021/01/27 03:00:21;;;;;;;0.40;0.40;;;;;;;0.54;79.33;99291.66;4936237;23;20235;-79
2021/01/27 03:03:54;;;;;;;0.40;0.40;;;;;;;0.62;77.98;99296.09;4967236;23;20207;-78
2021/01/27 03:07:12;;;;;;;0.40;0.40;;;;;;;0.46;79.13;99289.03;4961278;23;20239;-79
2021/01/27 03:10:42;;;;;;;0.40;0.40;;;;;;;0.44;79.32;99293.63;4973617;23;20298;-80
2021/01/27 03:13:19;;;;;;;0.40;0.40;;;;;;;0.36;79.14;99297.09;4988072;23;20238;-79
2021/01/27 03:17:07;;;;;;;0.40;0.40;;;;;;;0.28;79.30;99293.63;4931967;23;20239;-79
2021/01/27 03:20:39;;;;;;;0.40;0.40;;;;;;;0.32;79.24;99300.22;4938940;29;20256;-78
2021/01/27 03:24:01;;;;;;;0.40;0.40;;;;;;;0.30;80.14;99291.63;4898459;23;20185;-79
2021/01/27 03:26:55;;;;;;;0.40;0.40;;;;;;;0.33;78.25;99297.41;4940001;23;20251;-79
2021/01/27 03:30:18;;;;;;;0.40;0.40;;;;;;;0.33;77.04;99292.13;4958934;29;20640;-79
2021/01/27 03:33:57;;;;;;;0.40;0.40;;;;;;;0.41;76.63;99293.97;5031287;23;20250;-79
2021/01/27 03:38:18;;;;;;;0.40;0.40;;;;;;;0.29;76.62;99269.72;4959238;29;20228;-79
2021/01/27 03:41:38;;;;;;;0.40;0.40;;;;;;;0.41;76.90;99271.06;4964105;23;20297;-79
2021/01/27 03:44:49;;;;;;;0.40;0.40;;;;;;;0.31;77.03;99273.03;4933616;29;20231;-79
2021/01/27 03:47:43;;;;;;;0.40;0.40;;;;;;;0.34;77.25;99277.97;4950868;23;20227;-79
2021/01/27 03:51:04;;;;;;;0.40;0.40;;;;;;;0.34;77.26;99280.59;4978505;23;20224;-79
2021/01/27 03:53:58;;;;;;;0.40;0.40;;;;;;;0.39;77.46;99280.13;5040987;23;20243;-79
2021/01/27 03:57:51;;;;;;;0.40;0.40;;;;;;;0.46;77.30;99278.50;4972615;23;20322;-79
2021/01/27 04:01:07;;;;;;;0.40;0.40;;;;;;;0.30;77.61;99260.00;4936114;23;20239;-79
2021/01/27 04:04:22;;;;;;;0.50;0.50;;;;;;;0.46;76.95;99272.38;4900061;29;20257;-80
2021/01/27 04:07:25;;;;;;;0.40;0.40;;;;;;;0.43;76.64;99261.19;4932860;23;20231;-79
2021/01/27 04:10:41;;;;;;;0.40;0.40;;;;;;;0.51;76.58;99275.38;4984995;23;20223;-79
2021/01/27 04:13:55;;;;;;;0.43;0.43;;;;;;;0.33;76.69;99263.13;4982166;23;20227;-79
2021/01/27 04:16:57;;;;;;;0.40;0.40;;;;;;;0.46;76.67;99294.31;4955130;23;20298;-80
2021/01/27 04:20:31;;;;;;;0.33;0.33;;;;;;;0.45;76.13;99284.75;4880913;29;20325;-79
2021/01/27 04:23:34;;;;;;;0.40;0.40;;;;;;;0.34;76.59;99275.34;4931442;23;20235;-79
2021/01/27 04:27:18;;;;;;;0.40;0.40;;;;;;;0.43;75.87;99290.16;4953594;23;20238;-79
2021/01/27 04:29:54;;;;;;;0.40;0.40;;;;;;;0.47;76.27;99295.94;4983417;23;20211;-79
2021/01/27 04:33:11;;;;;;;0.40;0.40;;;;;;;0.43;76.22;99299.88;4980729;23;20218;-79
2021/01/27 04:36:38;;;;;;;0.47;0.47;;;;;;;0.29;77.53;99290.81;4974261;23;20316;-80
2021/01/27 04:39:57;;;;;;;0.40;0.40;;;;;;;0.32;77.62;99298.41;5066055;23;20264;-80
2021/01/27 04:43:03;;;;;;;0.40;0.40;;;;;;;0.24;77.39;99298.38;5062875;23;20239;-79
2021/01/27 04:46:13;;;;;;;0.40;0.40;;;;;;;0.25;77.64;99284.22;4982553;23;20230;-79
2021/01/27 04:49:40;;;;;;;0.40;0.40;;;;;;;0.39;77.72;99307.28;5030211;23;20215;-79
2021/01/27 04:52:44;;;;;;;0.40;0.40;;;;;;;0.29;76.66;99290.81;4959062;29;20219;-79
2021/01/27 04:56:01;;;;;;;0.40;0.40;;;;;;;0.28;76.70;99283.09;4960436;23;20228;-79
2021/01/27 04:59:05;;;;;;;0.40;0.40;;;;;;;0.49;75.75;99308.94;4973361;23;20228;-79
2021/01/27 05:02:51;;;;;;;0.40;0.40;;;;;;;0.46;75.59;99311.94;4969755;23;20214;-79
2021/01/27 05:06:09;;;;;;;0.40;0.40;;;;;;;0.60;75.64;99304.19;4979820;23;20215;-79
2021/01/27 05:09:06;;;;;;;0.40;0.40;;;;;;;0.58;75.23;99313.25;4955524;29;20230;-79
2021/01/27 05:12:24;;;;;;;0.40;0.40;;;;;;;0.59;75.40;99313.09;4980102;23;20639;-79
2021/01/27 05:15:41;;;;;;;0.50;0.50;;;;;;;0.57;75.44;99311.59;5056677;23;20239;-79
2021/01/27 05:19:05;;;;;;;0.50;0.50;;;;;;;0.67;74.52;99314.91;5138634;23;20209;-79
2021/01/27 05:22:03;;;;;;;0.40;0.40;;;;;;;0.58;75.36;99323.78;4976745;29;20185;-79
2021/01/27 05:26:20;;;;;;;0.40;0.40;;;;;;;0.58;75.76;99314.06;4975107;23;20233;-79
2021/01/27 05:30:03;;;;;;;0.50;0.50;;;;;;;0.52;76.03;99322.63;4946018;23;20199;-80
2021/01/27 05:33:11;;;;;;;0.40;0.40;;;;;;;0.51;76.21;99314.91;4881379;23;20302;-80
2021/01/27 05:36:27;;;;;;;0.40;0.40;;;;;;;0.48;76.44;99317.84;4972213;29;20206;-79
2021/01/27 05:39:18;;;;;;;0.40;0.40;;;;;;;0.57;75.43;99314.22;4989985;23;20231;-79
2021/01/27 05:42:49;;;;;;;0.40;0.40;;;;;;;0.46;75.95;99304.03;4976704;28;20219;-79
2021/01/27 05:45:41;;;;;;;0.40;0.40;;;;;;;0.48;76.63;99317.84;4973789;23;20228;-79
2021/01/27 05:49:06;;;;;;;0.50;0.50;;;;;;;0.47;76.04;99308.31;5074685;23;20242;-79
2021/01/27 05:51:48;;;;;;;0.40;0.40;;;;;;;0.58;77.17;99311.44;4963612;23;20469;-79
2021/01/27 05:55:26;;;;;;;0.40;0.40;;;;;;;0.51;77.35;99309.63;4953474;23;20270;-79
2021/01/27 05:58:56;;;;;;;0.40;0.40;;;;;;;0.80;75.15;99310.78;4960326;23;20459;-79
2021/01/27 06:02:20;;;;;;;0.40;0.40;;;;;;;0.71;75.29;99308.31;4967231;23;20282;-79
2021/01/27 06:05:58;;;;;;;0.40;0.40;;;;;;;0.60;75.63;99312.13;4940438;29;20239;-79
2021/01/27 06:09:20;;;;;;;0.40;0.40;;;;;;;0.56;76.33;99304.69;4939820;29;20292;-79
2021/01/27 06:12:33;;;;;;;0.40;0.40;;;;;;;0.48;75.66;99308.13;4941563;29;20240;-79
2021/01/27 06:15:29;;;;;;;0.40;0.40;;;;;;;0.58;75.86;99307.97;5103468;23;20231;-78
2021/01/27 06:18:42;;;;;;;0.40;0.40;;;;;;;0.56;75.61;99299.41;4937362;23;20236;-79
2021/01/27 06:21:52;;;;;;;0.50;0.50;;;;;;;0.61;74.54;99305.81;4988977;23;20279;-79
2021/01/27 06:28:44;;;;;;;0.50;0.50;;;;;;;0.61;74.14;99311.09;4975671;23;20302;-79
2021/01/27 06:32:15;;;;;;;0.40;0.40;;;;;;;0.58;74.70;99307.97;4978043;28;20195;-79
2021/01/27 06:35:45;;;;;;;0.40;0.40;;;;;;;0.45;74.51;99284.75;4980757;29;20225;-78
2021/01/27 06:39:07;;;;;;;0.40;0.40;;;;;;;0.60;74.37;99311.28;4981182;29;20250;-79
2021/01/27 06:42:58;;;;;;;0.43;0.43;;;;;;;0.52;74.46;99311.25;5046335;23;20212;-79
2021/01/27 06:46:45;;;;;;;0.50;0.50;;;;;;;0.46;74.16;99307.47;1449373;23;20435;-78
2021/01/27 06:50:25;;;;;;;0.43;0.43;;;;;;;0.42;75.00;99316.72;4965522;23;20251;-79
2021/01/27 06:53:51;;;;;;;0.40;0.40;;;;;;;0.47;74.83;99311.75;4967628;23;20243;-78
2021/01/27 06:57:27;;;;;;;0.50;0.50;;;;;;;0.31;74.38;99309.94;5047525;23;20199;-79
2021/01/27 07:00:57;;;;;;;0.40;0.40;;;;;;;0.40;74.00;99322.13;5006514;23;20234;-79
2021/01/27 07:04:09;;;;;;;0.40;0.40;;;;;;;0.40;74.61;99319.50;4901195;29;20275;-79
2021/01/27 07:10:44;;;;;;;0.40;0.40;;;;;;;0.50;73.95;99314.06;4939843;29;20228;-78
2021/01/27 07:17:50;;;;;;;0.40;0.40;;;;;;;0.56;73.08;99316.03;4958685;23;20227;-79
2021/01/27 07:21:11;;;;;;;0.40;0.40;;;;;;;0.60;73.35;99317.38;4983033;23;20271;-80
2021/01/27 07:37:41;;;;;;;0.40;0.40;;;;;;;1.05;68.30;99323.97;4973473;23;20243;-80
2021/01/27 07:40:49;;;;;;;0.40;0.40;;;;;;;0.98;68.86;99315.09;4945684;23;20539;-79
2021/01/27 07:43:21;;;;;;;0.40;0.40;;;;;;;1.09;69.21;99318.19;4973754;28;20226;-80
2021/01/27 07:45:53;;;;;;;0.40;0.40;;;;;;;1.07;69.00;99309.63;4961128;23;20271;-80
2021/01/27 07:48:46;;;;;;;0.40;0.40;;;;;;;1.13;69.18;99311.59;4892104;23;20235;-80
2021/01/27 07:51:48;;;;;;;0.40;0.40;;;;;;;1.21;67.85;99302.84;4946870;23;20212;-81
2021/01/27 07:55:18;;;;;;;0.40;0.40;;;;;;;1.00;67.28;99287.53;4924208;23;20208;-81
2021/01/27 07:57:49;;;;;;;0.40;0.40;;;;;;;1.15;67.05;99325.44;4942086;23;20243;-79
2021/01/27 08:00:40;;;;;;;0.50;0.50;;;;;;;1.20;68.16;99323.13;4980952;23;20295;-80
2021/01/27 08:03:19;;;;;;;0.40;0.40;;;;;;;1.15;67.18;99333.38;4936093;29;20232;-81
2021/01/27 08:05:49;;;;;;;0.40;0.40;;;;;;;1.15;67.80;99333.38;4955308;23;20232;-79
2021/01/27 08:08:25;;;;;;;0.40;0.40;;;;;;;1.19;68.05;99320.66;4938582;28;20231;-80
2021/01/27 08:10:53;;;;;;;0.40;0.40;;;;;;;1.28;68.41;99330.19;4961195;23;20224;-80
2021/01/27 08:13:28;;;;;;;0.43;0.43;;;;;;;1.38;69.07;99335.31;4939070;29;20263;-80
2021/01/27 08:16:15;;;;;;;0.40;0.40;;;;;;;1.40;68.92;99341.25;4939807;29;20176;-80
2021/01/27 08:19:11;;;;;;;0.40;0.40;;;;;;;1.48;68.52;99343.88;4955781;28;20232;-80
2021/01/27 08:21:51;;;;;;;0.40;0.40;;;;;;;1.59;67.35;99344.31;4963131;23;20227;-80
2021/01/27 08:24:35;;;;;;;0.40;0.40;;;;;;;1.60;67.57;99356.53;4955929;29;20199;-81
2021/01/27 08:27:13;;;;;;;0.40;0.40;;;;;;;1.66;68.57;99355.03;4947747;23;20555;31
2021/01/27 08:29:55;;;;;;;0.40;0.40;;;;;;;1.66;68.41;99352.41;4866577;29;20225;-80
2021/01/27 08:32:35;;;;;;;0.40;0.40;;;;;;;1.76;68.08;99364.44;4941991;23;20243;-81
2021/01/27 08:35:27;;;;;;;0.40;0.40;;;;;;;1.83;68.11;99359.28;4953209;23;20224;-80
2021/01/27 08:38:30;;;;;;;0.40;0.40;;;;;;;1.75;67.87;99351.38;4945037;23;20223;-81
2021/01/27 08:40:57;;;;;;;0.40;0.40;;;;;;;1.76;68.07;99360.97;4878715;23;20258;-80
2021/01/27 08:43:53;;;;;;;0.40;0.40;;;;;;;1.93;68.12;99367.81;4979365;23;20227;-81
2021/01/27 08:46:46;;;;;;;0.40;0.40;;;;;;;1.90;68.33;99365.53;4968316;23;20195;-81
2021/01/27 08:49:37;;;;;;;0.40;0.40;;;;;;;2.04;68.29;99369.28;4971072;23;20681;-80
2021/01/27 08:52:52;;;;;;;0.40;0.40;;;;;;;2.16;67.93;99374.00;4956821;23;20255;-81
2021/01/27 08:55:57;;;;;;;0.40;0.40;;;;;;;2.23;68.49;99379.44;4960468;23;20200;-81
2021/01/27 08:58:45;;;;;;;0.40;0.40;;;;;;;2.07;67.39;99345.97;4956101;29;20247;-80
2021/01/27 09:01:33;;;;;;;0.40;0.40;;;;;;;2.35;67.88;99378.06;4937097;28;20251;-81
2021/01/27 09:04:09;;;;;;;0.50;0.50;;;;;;;2.18;66.48;99356.16;4937834;23;20267;-80
2021/01/27 09:06:49;;;;;;;0.40;0.40;;;;;;;2.31;66.89;99360.88;4867496;29;20237;-81
2021/01/27 09:09:26;;;;;;;0.40;0.40;;;;;;;2.48;66.35;99382.75;4942011;23;20266;-81
2021/01/27 09:12:02;;;;;;;0.37;0.37;;;;;;;2.52;66.84;99370.88;4937163;29;20247;-80
2021/01/27 09:14:29;;;;;;;0.40;0.40;;;;;;;2.58;66.05;99372.78;4953157;28;20227;-81
2021/01/27 09:17:11;;;;;;;0.40;0.40;;;;;;;2.69;66.36;99376.88;4955534;28;20242;-81
2021/01/27 09:20:00;;;;;;;0.40;0.40;;;;;;;2.64;66.05;99367.63;4977018;23;20219;-81
2021/01/27 09:22:41;;;;;;;0.40;0.40;;;;;;;2.72;65.50;99369.41;4940869;23;20220;-81
2021/01/27 09:25:11;;;;;;;0.40;0.40;;;;;;;2.59;65.49;99340.06;4929408;23;20212;-81
2021/01/27 09:27:38;;;;;;;0.40;0.40;;;;;;;2.80;65.40;99365.88;4869550;23;20270;-81
2021/01/27 09:30:16;;;;;;;0.40;0.40;;;;;;;2.99;64.95;99373.31;4883895;23;20569;-81
2021/01/27 09:32:45;;;;;;;0.40;0.40;;;;;;;3.09;64.32;99373.91;4936147;29;20299;-81
2021/01/27 09:35:41;;;;;;;0.40;0.40;;;;;;;3.20;65.21;99381.44;4921718;29;20203;-81
2021/01/27 09:38:30;;;;;;;0.40;0.40;;;;;;;3.20;62.99;99375.31;4936349;29;20232;-81
2021/01/27 09:41:20;;;;;;;0.40;0.40;;;;;;;3.22;62.84;99382.06;4922214;23;20236;-81
2021/01/27 09:43:50;;;;;;;0.40;0.40;;;;;;;3.29;62.97;99388.31;5000042;23;20255;-81
2021/01/27 09:46:17;;;;;;;0.40;0.40;;;;;;;3.33;63.16;99381.66;4944463;23;20239;-82
2021/01/27 09:48:44;;;;;;;0.40;0.40;;;;;;;3.20;63.62;99368.22;4928301;29;20310;-81
2021/01/27 09:51:15;;;;;;;0.40;0.40;;;;;;;3.30;63.47;99381.19;4919155;29;20235;-81
2021/01/27 09:53:44;;;;;;;0.40;0.40;;;;;;;3.25;62.11;99381.75;4914786;29;20234;-82
2021/01/27 09:56:17;;;;;;;0.40;0.40;;;;;;;3.32;62.55;99385.31;4914908;29;20279;-81
2021/01/27 09:58:44;;;;;;;0.40;0.40;;;;;;;3.38;63.22;99376.66;4931815;29;20302;-81
2021/01/27 10:01:22;;;;;;;0.40;0.40;;;;;;;3.41;63.45;99372.81;4947440;28;20242;-81
2021/01/27 10:03:51;;;;;;;0.40;0.40;;;;;;;3.54;64.09;99384.47;4915459;29;20262;-81
2021/01/27 10:06:48;;;;;;;0.40;0.40;;;;;;;3.63;64.17;99385.19;4940166;23;20216;-81
2021/01/27 10:09:51;;;;;;;0.40;0.40;;;;;;;3.68;63.95;99382.81;4944268;23;20235;-83
2021/01/27 10:12:33;;;;;;;0.40;0.40;;;;;;;3.86;63.55;99380.63;4936500;23;20236;-82
2021/01/27 10:15:32;;;;;;;0.40;0.40;;;;;;;3.92;63.53;99371.94;4955280;23;20312;-82
2021/01/27 10:18:24;;;;;;;0.40;0.40;;;;;;;3.93;63.90;99370.94;4920859;29;20220;-82
2021/01/27 10:20:50;;;;;;;0.40;0.40;;;;;;;4.02;64.18;99355.75;4912099;23;20250;-82
2021/01/27 10:23:52;;;;;;;0.40;0.40;;;;;;;4.18;63.30;99355.56;4891788;23;20232;-81
2021/01/27 10:26:40;;;;;;;0.40;0.40;;;;;;;4.21;63.20;99357.00;4886024;23;20259;-81
2021/01/27 10:29:16;;;;;;;0.40;0.40;;;;;;;4.29;61.98;99355.06;4880659;29;20239;-82
2021/01/27 10:31:45;;;;;;;0.40;0.40;;;;;;;4.34;61.83;99350.03;4914335;29;20222;-81
2021/01/27 10:34:34;;;;;;;0.40;0.40;;;;;;;4.35;62.05;99348.22;4896579;29;20323;-81
2021/01/27 10:37:04;;;;;;;0.40;0.40;;;;;;;4.38;61.69;99353.16;4920503;29;20228;-81
2021/01/27 10:39:32;;;;;;;0.40;0.40;;;;;;;4.37;62.63;99349.69;4875282;23;20243;-82
2021/01/27 10:42:05;;;;;;;0.40;0.40;;;;;;;4.34;61.50;99344.72;4917222;23;20319;-79
2021/01/27 10:44:34;;;;;;;0.30;0.30;;;;;;;4.34;62.70;99344.72;4925589;29;20655;-81
2021/01/27 10:47:44;;;;;;;0.40;0.40;;;;;;;4.38;62.68;99327.47;4953253;29;20207;-82
2021/01/27 10:50:14;;;;;;;0.40;0.40;;;;;;;4.44;62.42;99320.56;4941095;29;20795;-82
2021/01/27 10:53:12;;;;;;;0.40;0.40;;;;;;;4.57;61.65;99307.47;4944231;29;20208;-82
2021/01/27 10:56:01;;;;;;;0.33;0.33;;;;;;;4.76;60.72;99311.28;4857750;29;20218;-82
2021/01/27 10:58:50;;;;;;;0.40;0.40;;;;;;;4.88;61.18;99313.25;4807913;29;20505;-82
2021/01/27 11:01:18;;;;;;;0.40;0.40;;;;;;;4.67;59.07;99305.28;4905668;23;20273;-81
2021/01/27 11:04:06;;;;;;;0.40;0.40;;;;;;;4.93;60.00;99318.00;4917887;23;20241;-82
2021/01/27 11:06:32;;;;;;;0.40;0.40;;;;;;;4.97;58.00;99311.28;4887123;29;20210;-82
2021/01/27 11:08:59;;;;;;;0.40;0.40;;;;;;;4.93;57.27;99299.41;4941375;23;20235;-81
2021/01/27 11:11:26;;;;;;;0.40;0.40;;;;;;;4.87;57.14;99285.06;4930824;23;20249;-82
2021/01/27 11:14:01;;;;;;;0.40;0.40;;;;;;;4.66;54.92;99273.66;4952177;28;20234;-82
2021/01/27 11:16:35;;;;;;;0.40;0.40;;;;;;;4.79;55.23;99292.34;4925331;29;20230;-82
2021/01/27 11:19:02;;;;;;;0.40;0.40;;;;;;;4.71;54.69;99281.88;4952789;29;20304;-82
2021/01/27 11:21:31;;;;;;;0.40;0.40;;;;;;;4.55;54.47;99282.94;4953404;29;20235;-82
2021/01/27 11:24:00;;;;;;;0.40;0.40;;;;;;;4.28;55.12;99247.38;4939797;29;20256;-82
2021/01/27 11:26:27;;;;;;;0.40;0.40;;;;;;;4.34;54.67;99282.91;4956285;28;20242;-82
2021/01/27 11:28:54;;;;;;;0.40;0.40;;;;;;;4.04;55.70;99250.38;4956862;29;20251;-82
2021/01/27 11:31:20;;;;;;;0.40;0.40;;;;;;;4.01;56.04;99268.47;4934296;29;20240;-82
2021/01/27 11:33:47;;;;;;;0.40;0.40;;;;;;;3.87;56.08;99257.69;4937830;29;20310;-82
2021/01/27 11:36:32;;;;;;;0.40;0.40;;;;;;;3.80;56.80;99255.97;4923278;28;20235;-81
2021/01/27 11:38:59;;;;;;;0.40;0.40;;;;;;;3.87;55.59;99270.16;4953598;29;20216;-82
2021/01/27 11:41:26;;;;;;;0.40;0.40;;;;;;;3.83;56.21;99259.09;4937812;29;20210;-82
2021/01/27 11:43:53;;;;;;;0.40;0.40;;;;;;;3.91;55.51;99266.94;4935938;29;20251;-82
2021/01/27 11:46:23;;;;;;;0.40;0.40;;;;;;;3.83;55.32;99245.84;4963436;28;20238;-81
2021/01/27 11:48:53;;;;;;;0.40;0.40;;;;;;;3.93;54.59;99245.53;4951541;29;20228;-83
2021/01/27 11:51:19;;;;;;;0.40;0.40;;;;;;;3.94;53.59;99252.50;4942153;23;20235;-82
2021/01/27 11:53:48;;;;;;;0.40;0.40;;;;;;;3.95;54.11;99254.97;4932600;29;20248;-81
2021/01/27 11:56:17;;;;;;;0.40;0.40;;;;;;;4.05;54.25;99261.78;4956482;23;20220;-82
2021/01/27 11:58:46;;;;;;;0.40;0.40;;;;;;;3.98;53.96;99241.31;4931003;23;20236;-82
2021/01/27 12:01:13;;;;;;;0.40;0.40;;;;;;;4.02;54.37;99239.13;4936699;23;20223;-81
2021/01/27 12:03:39;;;;;;;0.40;0.40;;;;;;;4.08;54.56;99242.84;4953892;23;20215;-81
2021/01/27 12:06:07;;;;;;;0.40;0.40;;;;;;;3.98;53.75;99222.78;4905938;29;20232;-81
2021/01/27 12:08:33;;;;;;;0.40;0.40;;;;;;;4.05;53.57;99233.47;4925691;29;20716;-82
2021/01/27 12:11:01;;;;;;;0.40;0.40;;;;;;;4.18;52.61;99240.72;4925504;29;20252;-82
2021/01/27 12:13:30;;;;;;;0.40;0.40;;;;;;;4.27;53.35;99235.13;4942552;23;20633;-81
2021/01/27 12:15:57;;;;;;;0.40;0.40;;;;;;;4.30;52.88;99247.16;4939709;29;20196;-81
2021/01/27 12:18:23;;;;;;;0.40;0.40;;;;;;;4.29;52.85;99226.97;4937068;28;20296;-81
2021/01/27 12:20:51;;;;;;;0.30;0.30;;;;;;;4.50;53.12;99240.22;4934782;29;20231;-81
2021/01/27 12:23:20;;;;;;;0.40;0.40;;;;;;;4.49;51.92;99225.31;4904023;29;20275;-81
2021/01/27 12:25:56;;;;;;;0.30;0.30;;;;;;;4.75;52.08;99233.53;4935992;29;20577;-81
2021/01/27 12:28:23;;;;;;;0.40;0.40;;;;;;;4.82;51.08;99237.03;4932423;28;20236;-81
2021/01/27 12:30:49;;;;;;;0.40;0.40;;;;;;;5.03;51.76;99249.47;4921079;29;20227;-81
2021/01/27 12:33:19;;;;;;;0.40;0.40;;;;;;;5.20;49.77;99244.66;4939078;23;20223;-81
2021/01/27 12:35:45;;;;;;;0.37;0.37;;;;;;;5.15;50.53;99225.84;4903615;29;20181;-82
2021/01/27 12:38:11;;;;;;;0.30;0.30;;;;;;;5.10;49.00;99231.72;4897891;29;20563;-81
2021/01/27 12:40:38;;;;;;;0.40;0.40;;;;;;;5.21;49.45;99247.13;4903890;23;20232;-81
2021/01/27 12:43:04;;;;;;;0.30;0.30;;;;;;;5.12;49.71;99232.38;4928201;29;20181;-81
2021/01/27 12:45:31;;;;;;;0.40;0.40;;;;;;;5.20;50.99;99236.69;4935252;29;20303;-81
2021/01/27 12:47:58;;;;;;;0.40;0.40;;;;;;;5.29;50.43;99228.38;4937811;29;20239;-81
2021/01/27 12:50:33;;;;;;;0.40;0.40;;;;;;;5.29;49.05;99227.56;4935013;28;20255;-81
2021/01/27 12:53:08;;;;;;;0.40;0.40;;;;;;;5.11;50.46;99221.94;4949314;28;20296;-82
2021/01/27 12:55:34;;;;;;;0.30;0.30;;;;;;;5.10;51.53;99242.34;4927224;29;20213;-81
2021/01/27 12:58:04;;;;;;;0.40;0.40;;;;;;;4.94;51.44;99231.22;4910812;29;20239;-82
2021/01/27 13:00:30;;;;;;;0.40;0.40;;;;;;;4.91;51.70;99239.53;4917940;29;20241;-81
2021/01/27 13:02:57;;;;;;;0.40;0.40;;;;;;;4.71;51.98;99236.75;4947897;29;20228;-82
2021/01/27 13:05:26;;;;;;;0.30;0.30;;;;;;;4.67;52.75;99233.63;4912357;29;20616;-82
2021/01/27 13:07:53;;;;;;;0.33;0.33;;;;;;;4.75;53.26;99238.00;4932913;29;20531;-82
2021/01/27 13:10:19;;;;;;;0.40;0.40;;;;;;;4.60;52.47;99240.75;4948062;29;20236;-82
2021/01/27 13:12:46;;;;;;;0.40;0.40;;;;;;;4.56;52.71;99233.34;4911250;29;20230;-82
2021/01/27 13:15:20;;;;;;;0.40;0.40;;;;;;;4.60;52.68;99226.66;4892707;29;20229;-81
2021/01/27 13:17:48;;;;;;;0.40;0.40;;;;;;;4.51;53.19;99215.34;4948163;29;20227;-82
2021/01/27 13:20:17;;;;;;;0.40;0.40;;;;;;;4.57;53.43;99227.03;4934073;28;20204;-82
2021/01/27 13:22:43;;;;;;;0.30;0.30;;;;;;;4.49;53.63;99227.97;4937153;23;20257;-82
2021/01/27 13:25:15;;;;;;;0.40;0.40;;;;;;;4.30;53.61;99197.59;4922914;23;20217;-82
2021/01/27 13:27:59;;;;;;;0.40;0.40;;;;;;;4.34;53.67;99208.66;4928884;23;20229;-82
2021/01/27 13:30:26;;;;;;;0.40;0.40;;;;;;;4.50;54.37;99223.50;4896051;29;20271;-82
2021/01/27 13:32:53;;;;;;;0.40;0.40;;;;;;;4.48;53.98;99206.97;4900804;29;20232;-82
2021/01/27 13:35:23;;;;;;;0.40;0.40;;;;;;;4.56;54.57;99218.25;4880428;24;20228;-81
2021/01/27 13:37:51;;;;;;;0.30;0.30;;;;;;;4.56;53.99;99220.09;4912582;23;20243;-81
2021/01/27 13:40:19;;;;;;;0.40;0.40;;;;;;;4.50;54.53;99215.53;4900437;29;20228;-82
2021/01/27 13:42:50;;;;;;;0.40;0.40;;;;;;;4.36;54.74;99209.28;4909766;29;20240;-82
2021/01/27 13:45:17;;;;;;;0.40;0.40;;;;;;;4.32;54.90;99211.50;4917660;29;20235;-82
2021/01/27 13:47:44;;;;;;;0.40;0.40;;;;;;;4.20;53.93;99196.28;4915470;29;20220;-81
2021/01/27 13:50:14;;;;;;;0.40;0.40;;;;;;;4.32;54.50;99218.63;4930826;29;20228;-82